Aeroporto :
LOGIN :

Iscrizione | Disclaimer

   EN    FR    IT 

 










Sommario :    VFR   VFR Marginale   IFR   IFR Intensivo   IFR Molto Intensivo
Visibilità : 
Base nubi : 
>= 8 km
>= 3000ft
5 / 8 km
1000 / 3000 ft
1500m / 5 km
500 / 1000 ft
800 / 1500m
200 / 500 ft
< 800m
< 200 ft
Simboli :   Temporali  Nebbia  Neve Forte  Precipitazioni Forti  Vento > 20 kt
SIGMETs :   Varie  Temporali  Ghiacco  Turbolenza  Onda orograficha  Ceneri Vulcaniche






- Altitudine del aeroporto : 1046 ft
- Codice IATA : NUE


EDDN - Nuremberg

ULTIMO METAR :
  • 180620Z 21011G21KT 9999 -SHRA FEW012 BKN023 05/02 Q1024 NOSIG

METARs OBSOLETI :
  • 180550Z 20010KT 9999 BKN040 05/02 Q1024 NOSIG
  • 180520Z 23012KT 9999 SCT028 06/01 Q1024 TEMPO 25015G25KT SHRA BKN025TCU
  • 180450Z 22006KT 190V250 9999 BKN028 06/02 Q1023
  • 180420Z 24014KT 9999 BKN029 06/01 Q1023
  • 180350Z 24010KT 9999 BKN029 06/02 Q1023
  • 180320Z 25011KT 9999 FEW026 BKN049 06/02 Q1023

TAF TAF EDDN
Valido dal 18 a 06 ore il 19 a 06 ore UTC


180500Z 1806/1906 25012G25KT 9999 SCT025
TEMPO 1810/1815 26020G30KT
BECMG 1816/1818 20006KT



MetMap, La meteo Aeronautica in un colpo d'occhio ! - Copyright ORBIFLY Dicembre 2007 - Disclaimer

ORBIFLY MET'MAP TEAM :

Programmazione e sviluppo : Alexandra Zaïnal
Concezione : Baudouin d'Aumeries
Aiuto per la programmazione : Marc-Olivier Méhu
Supporto tecnico e logistico : Manuel Goepfert
Aiuto per la traduzione : Arnaldo La Scala

Contatto : metmap@orbifly.com




FONTI E CREDITI :

   NOAA